Time;durP1;ratioP1;P1;durP2;ratioP2;P2;SDS_P1;SDS_P2;PMS_P1;PMS_P2;Temp;Humidity;BMP_temperature;BMP_pressure;BME280_temperature;BME280_humidity;BME280_pressure;Samples;Min_cycle;Max_cycle;Signal;HPM_P1;HPM_P2
2020/12/03 00:02:17;;;;;;;;;5.00;5.00;;;;;9.47;73.59;100388.06;4993009;28;8837;-76
2020/12/03 00:04:45;;;;;;;;;9.00;7.00;;;;;9.63;72.79;100384.81;4992854;28;8897;-75
2020/12/03 00:07:13;;;;;;;;;5.00;5.00;;;;;9.71;72.64;100388.41;4988875;28;8833;-74
2020/12/03 00:09:43;;;;;;;;;6.33;5.67;;;;;9.80;72.36;100383.28;4993055;28;8842;-74
2020/12/03 00:12:10;;;;;;;;;6.00;6.00;;;;;9.94;71.93;100386.97;4992680;28;8829;-74
2020/12/03 00:14:37;;;;;;;;;5.00;4.33;;;;;9.89;71.40;100389.53;4992659;28;8917;-76
2020/12/03 00:17:03;;;;;;;;;5.00;5.00;;;;;10.00;70.93;100381.81;4992792;28;9613;-74
2020/12/03 00:19:30;;;;;;;;;6.67;5.67;;;;;9.96;70.78;100382.63;4992778;28;8849;-75
2020/12/03 00:21:59;;;;;;;;;2.33;2.33;;;;;9.91;70.44;100376.47;4992288;28;8846;-77
2020/12/03 00:24:28;;;;;;;;;1.33;1.00;;;;;9.65;71.25;100378.75;4992658;28;8931;-78
2020/12/03 00:26:55;;;;;;;;;5.00;3.00;;;;;9.57;72.02;100374.28;4992130;28;8940;-78
2020/12/03 00:29:23;;;;;;;;;5.00;5.00;;;;;9.34;72.99;100380.91;4992499;28;8992;-77
2020/12/03 00:31:51;;;;;;;;;7.67;5.67;;;;;9.18;73.83;100381.53;4992230;28;8905;-78
2020/12/03 00:34:18;;;;;;;;;6.33;6.33;;;;;8.93;74.71;100387.19;4992301;28;8915;-77
2020/12/03 00:36:44;;;;;;;;;3.00;3.00;;;;;8.55;75.94;100388.25;4992108;28;9009;-76
2020/12/03 00:39:16;;;;;;;;;0.00;0.00;;;;;8.52;77.29;100388.22;4992459;28;8857;-75
2020/12/03 00:41:48;;;;;;;;;3.33;2.00;;;;;8.73;76.05;100392.06;4988615;28;8853;-77
2020/12/03 00:44:15;;;;;;;;;6.00;5.00;;;;;8.57;77.17;100390.03;4988969;28;8955;-77
2020/12/03 00:46:41;;;;;;;;;2.00;2.00;;;;;9.11;74.74;100382.28;4992129;28;8861;-77
2020/12/03 00:49:08;;;;;;;;;3.67;3.67;;;;;9.17;74.50;100385.00;4991989;28;8943;-76
2020/12/03 00:51:34;;;;;;;;;2.00;2.00;;;;;9.41;73.84;100382.75;4992279;28;8925;-75
2020/12/03 00:54:01;;;;;;;;;3.33;3.33;;;;;9.61;73.09;100381.31;4991881;28;8916;-75
2020/12/03 00:56:27;;;;;;;;;2.67;2.67;;;;;9.56;71.52;100382.97;4991863;28;9569;-75
2020/12/03 00:58:53;;;;;;;;;5.00;1.67;;;;;9.69;70.64;100384.88;4991976;28;8839;-76
2020/12/03 01:01:21;;;;;;;;;2.00;1.67;;;;;9.83;70.38;100388.59;4991935;28;8857;-75
2020/12/03 01:03:49;;;;;;;;;1.33;1.33;;;;;9.96;69.51;100385.25;4991834;28;8851;-75
2020/12/03 01:06:18;;;;;;;;;1.67;1.67;;;;;9.75;70.56;100393.69;4991590;28;8938;-74
2020/12/03 01:08:44;;;;;;;;;2.00;2.00;;;;;9.93;70.65;100406.16;4991140;28;8916;-76
2020/12/03 01:11:13;;;;;;;;;1.00;1.00;;;;;9.97;70.02;100407.91;4991686;28;8841;-74
2020/12/03 01:13:39;;;;;;;;;1.33;1.00;;;;;10.03;69.99;100415.88;4991664;28;8925;-76
2020/12/03 01:16:05;;;;;;;;;1.67;1.67;;;;;10.05;69.69;100419.41;4991352;28;9621;-75
2020/12/03 01:18:31;;;;;;;;;2.00;1.00;;;;;10.09;69.84;100409.00;4991509;28;8865;-76
2020/12/03 01:20:58;;;;;;;;;1.00;1.00;;;;;9.92;70.74;100417.47;4991334;28;8867;-76
2020/12/03 01:23:25;;;;;;;;;0.33;0.33;;;;;9.67;70.75;100417.97;4991566;28;8853;-75
2020/12/03 01:25:51;;;;;;;;;1.00;1.00;;;;;9.80;70.45;100410.34;4991246;28;8859;-76
2020/12/03 01:28:17;;;;;;;;;2.33;1.00;;;;;9.76;70.27;100411.13;4991241;28;8857;-75
2020/12/03 01:30:43;;;;;;;;;0.00;0.00;;;;;9.54;70.47;100379.47;4991426;28;8847;-75
2020/12/03 01:33:10;;;;;;;;;1.00;1.00;;;;;9.96;69.95;100400.94;4991266;28;8865;-75
2020/12/03 01:35:36;;;;;;;;;0.00;0.00;;;;;9.74;70.13;100393.66;4991420;28;8917;-75
2020/12/03 01:38:02;;;;;;;;;0.00;0.00;;;;;9.61;70.06;100392.63;4991046;28;8941;-74
2020/12/03 01:40:29;;;;;;;;;1.67;1.00;;;;;9.65;69.92;100383.13;4991556;28;8841;-74
2020/12/03 01:42:56;;;;;;;;;1.00;1.00;;;;;9.26;70.88;100387.72;4990787;28;8847;-72
2020/12/03 01:45:55;;;;;;;;;1.00;1.00;;;;;9.32;72.25;100393.94;4990911;28;8857;-73
2020/12/03 01:48:41;;;;;;;;;1.00;1.00;;;;;8.87;73.77;100407.97;4989100;28;8925;-74
2020/12/03 01:51:13;;;;;;;;;0.00;0.00;;;;;8.93;74.11;100401.13;4990768;28;8846;-74
2020/12/03 01:53:39;;;;;;;;;2.00;1.00;;;;;8.90;73.32;100408.03;4987179;28;8903;-74
2020/12/03 01:56:32;;;;;;;;;0.00;0.00;;;;;8.68;74.44;100416.34;4990723;28;8831;-74
2020/12/03 01:59:02;;;;;;;;;0.00;0.00;;;;;8.84;73.38;100381.84;4989225;28;8849;-73
2020/12/03 02:01:29;;;;;;;;;0.33;0.33;;;;;9.12;73.44;100399.72;4991067;28;8920;-76
2020/12/03 02:03:56;;;;;;;;;2.00;0.00;;;;;9.40;72.34;100370.53;4990532;28;8858;-76
2020/12/03 02:06:24;;;;;;;;;0.00;0.00;;;;;9.43;72.32;100386.25;4990711;28;8871;-75
2020/12/03 02:08:50;;;;;;;;;0.00;0.00;;;;;9.27;72.60;100374.69;4990924;28;8983;-76
2020/12/03 02:11:19;;;;;;;;;0.00;0.00;;;;;9.71;70.66;100388.41;4990942;28;9006;-75
2020/12/03 02:13:53;;;;;;;;;0.00;0.00;;;;;9.63;70.43;100384.81;4990663;28;8931;-75
2020/12/03 02:16:20;;;;;;;;;0.67;0.00;;;;;9.60;69.79;100384.78;4990736;28;8855;-77
2020/12/03 02:18:46;;;;;;;;;0.00;0.00;;;;;9.72;69.74;100377.09;4990485;28;8853;-76
2020/12/03 02:21:14;;;;;;;;;0.00;0.00;;;;;9.82;69.75;100384.22;4990344;28;8859;-76
2020/12/03 02:23:40;;;;;;;;;0.00;0.00;;;;;9.81;69.65;100380.72;4990606;28;8841;-76
2020/12/03 02:26:06;;;;;;;;;0.00;0.00;;;;;9.66;69.25;100384.88;4990353;28;8843;-75
2020/12/03 02:28:32;;;;;;;;;0.00;0.00;;;;;9.68;69.33;100383.13;4990554;28;8932;-75
2020/12/03 02:30:59;;;;;;;;;0.00;0.00;;;;;9.41;68.99;100382.75;4990582;28;8949;-75
2020/12/03 02:33:25;;;;;;;;;0.00;0.00;;;;;9.47;68.95;100377.59;4990488;28;8925;-75
2020/12/03 02:35:51;;;;;;;;;0.00;0.00;;;;;9.52;69.19;100381.16;4990272;28;8849;-76
2020/12/03 02:38:18;;;;;;;;;0.00;0.00;;;;;9.64;68.26;100381.31;4990591;28;8839;-75
2020/12/03 02:40:44;;;;;;;;;0.00;0.00;;;;;9.67;68.52;100381.38;4990691;28;8845;-75
2020/12/03 02:43:11;;;;;;;;;0.00;0.00;;;;;9.61;68.35;100365.63;4990503;28;8863;-75
2020/12/03 02:45:37;;;;;;;;;0.00;0.00;;;;;9.68;68.29;100362.22;4986573;28;8864;-76
2020/12/03 02:48:03;;;;;;;;;0.00;0.00;;;;;9.73;67.96;100350.97;4990316;28;8874;-76
2020/12/03 02:50:30;;;;;;;;;0.00;0.00;;;;;9.76;68.87;100356.22;4990652;28;8859;-76
2020/12/03 02:55:32;;;;;;;;;0.00;0.00;;;;;9.83;68.75;100367.66;5120054;27;13503;-76
